Time;durP1;ratioP1;P1;durP2;ratioP2;P2;SDS_P1;SDS_P2;PMS_P1;PMS_P2;Temp;Humidity;BMP_temperature;BMP_pressure;BME280_temperature;BME280_humidity;BME280_pressure;Samples;Min_cycle;Max_cycle;Signal;HPM_P1;HPM_P2
2022/10/06 00:00:33;;;;;;;23.02;15.50;;;18.50;62.50;;;;;;5048001;28;20016;-84
2022/10/06 00:02:58;;;;;;;21.40;14.75;;;18.40;63.50;;;;;;5056330;28;20032;-83
2022/10/06 00:05:24;;;;;;;21.58;14.82;;;18.50;62.10;;;;;;5057401;28;20024;-85
2022/10/06 00:07:50;;;;;;;22.48;15.13;;;18.90;61.10;;;;;;5057875;28;20029;-85
2022/10/06 00:10:16;;;;;;;23.85;15.82;;;19.00;60.30;;;;;;5055745;28;20029;-86
2022/10/06 00:12:48;;;;;;;19.88;14.15;;;19.00;59.90;;;;;;5055545;28;20082;-85
2022/10/06 00:15:17;;;;;;;23.30;16.17;;;19.00;59.80;;;;;;5045953;28;20021;-84
2022/10/06 00:17:42;;;;;;;18.85;13.82;;;19.00;59.60;;;;;;5057472;28;20032;-84
2022/10/06 00:20:09;;;;;;;25.23;15.45;;;18.90;59.30;;;;;;5074570;28;20036;-84
2022/10/06 00:22:41;;;;;;;18.52;13.63;;;18.70;59.80;;;;;;5075617;28;20033;-85
2022/10/06 00:25:08;;;;;;;24.73;13.88;;;18.80;59.70;;;;;;5047723;28;20032;-85
2022/10/06 00:27:41;;;;;;;18.70;13.30;;;18.70;59.70;;;;;;5054160;28;20039;-84
2022/10/06 00:30:10;;;;;;;20.38;13.40;;;18.70;59.80;;;;;;5050443;28;20045;-83
2022/10/06 00:32:38;;;;;;;20.15;13.07;;;18.80;59.70;;;;;;5058225;28;20407;-85
2022/10/06 00:35:05;;;;;;;21.67;14.20;;;18.90;59.70;;;;;;5051167;28;20035;-85
2022/10/06 00:37:34;;;;;;;21.30;12.98;;;18.90;59.60;;;;;;5054885;28;20063;-85
2022/10/06 00:40:00;;;;;;;19.53;14.13;;;18.90;60.00;;;;;;5055906;28;20070;-84
2022/10/06 00:42:29;;;;;;;18.70;12.43;;;19.00;59.70;;;;;;5055319;28;20297;-84
2022/10/06 00:44:59;;;;;;;16.95;11.38;;;19.00;59.10;;;;;;5056627;28;20016;-85
2022/10/06 00:47:27;;;;;;;19.30;12.40;;;18.90;60.00;;;;;;5047852;28;20017;-84
2022/10/06 00:49:54;;;;;;;19.08;12.50;;;18.90;60.30;;;;;;5056274;28;20032;-84
2022/10/06 00:52:24;;;;;;;16.63;11.30;;;18.60;61.10;;;;;;5074122;28;20108;-84
2022/10/06 00:54:50;;;;;;;19.73;12.43;;;18.50;60.50;;;;;;5088275;28;20107;-84
2022/10/06 00:57:18;;;;;;;22.20;14.27;;;18.20;62.20;;;;;;5069119;28;20305;-82
2022/10/06 00:59:44;;;;;;;23.85;11.75;;;18.20;61.90;;;;;;5074817;28;20344;-84
2022/10/06 01:02:25;;;;;;;19.25;11.48;;;18.50;60.90;;;;;;5056624;28;20025;-85
2022/10/06 01:04:57;;;;;;;17.45;11.15;;;18.60;59.20;;;;;;5053646;28;20056;-84
2022/10/06 01:07:27;;;;;;;16.00;11.07;;;18.60;59.00;;;;;;5066342;28;20037;-85
2022/10/06 01:09:54;;;;;;;19.10;11.45;;;18.60;58.80;;;;;;5074793;28;20040;-85
2022/10/06 01:12:21;;;;;;;17.25;11.43;;;18.60;59.10;;;;;;5074388;28;20024;-84
2022/10/06 01:14:47;;;;;;;19.42;11.40;;;18.50;59.70;;;;;;5056151;28;20051;-84
2022/10/06 01:17:31;;;;;;;17.52;12.30;;;18.50;59.00;;;;;;5074243;28;20095;-84
2022/10/06 01:20:02;;;;;;;15.43;11.07;;;18.40;58.70;;;;;;5074212;28;20039;-85
2022/10/06 01:22:38;;;;;;;16.70;11.52;;;18.50;58.70;;;;;;5074055;28;20032;-85
2022/10/06 01:25:06;;;;;;;18.27;11.70;;;18.40;58.30;;;;;;5055671;28;20024;-84
2022/10/06 01:27:33;;;;;;;15.98;10.95;;;18.50;58.40;;;;;;5074131;28;20090;-85
2022/10/06 01:30:00;;;;;;;18.05;12.75;;;18.50;58.60;;;;;;5074071;28;20402;-88
2022/10/06 01:32:30;;;;;;;19.30;11.80;;;18.30;58.40;;;;;;5056761;28;20040;-85
2022/10/06 01:34:56;;;;;;;;;;;18.30;58.20;;;;;;5075344;28;20032;-84
2022/10/06 01:37:22;;;;;;;19.02;11.88;;;18.30;58.50;;;;;;5073775;28;20325;-84
2022/10/06 01:39:47;;;;;;;16.75;10.82;;;18.20;58.90;;;;;;5089218;28;20028;-84
2022/10/06 01:42:13;;;;;;;15.57;11.05;;;18.20;58.30;;;;;;5076899;28;20037;-84
2022/10/06 01:44:39;;;;;;;15.10;10.88;;;18.20;58.40;;;;;;5052344;28;20108;-90
2022/10/06 01:47:19;;;;;;;18.38;11.45;;;18.20;58.40;;;;;;5039314;28;20066;-85
2022/10/06 01:49:44;;;;;;;16.13;10.88;;;18.10;58.30;;;;;;5056202;28;20425;-90
2022/10/06 01:52:10;;;;;;;14.93;11.02;;;18.10;58.80;;;;;;5073343;28;20475;-88
2022/10/06 01:54:36;;;;;;;18.33;11.30;;;17.90;60.20;;;;;;5055714;28;20044;-84
2022/10/06 01:57:04;;;;;;;17.20;11.00;;;18.00;58.80;;;;;;5074042;28;20375;-86
2022/10/06 01:59:30;;;;;;;15.98;11.38;;;18.00;58.90;;;;;;5074163;28;20371;-89
2022/10/06 02:01:55;;;;;;;14.27;10.45;;;17.90;60.30;;;;;;5067914;28;20037;-85
2022/10/06 02:04:21;;;;;;;17.38;10.45;;;17.80;60.20;;;;;;5062999;28;20529;-84
2022/10/06 02:06:47;;;;;;;17.00;9.73;;;17.80;59.30;;;;;;5070274;28;20032;-86
2022/10/06 02:09:12;;;;;;;15.30;10.18;;;17.70;60.10;;;;;;5055859;28;20122;-86
2022/10/06 02:11:38;;;;;;;21.48;11.80;;;17.50;61.70;;;;;;5055960;28;20025;-86
2022/10/06 02:14:04;;;;;;;15.80;10.18;;;17.50;59.80;;;;;;5052096;28;20467;-85
2022/10/06 02:16:30;;;;;;;14.77;9.98;;;17.60;59.30;;;;;;5070159;28;20028;-91
2022/10/06 02:18:55;;;;;;;14.90;10.25;;;17.70;58.80;;;;;;5056233;28;20024;-86
2022/10/06 02:21:22;;;;;;;16.15;10.30;;;17.70;58.50;;;;;;5072702;28;20033;-92
2022/10/06 02:23:48;;;;;;;16.60;10.70;;;17.80;58.60;;;;;;5070458;28;20024;-86
2022/10/06 02:26:18;;;;;;;16.75;10.18;;;17.90;58.70;;;;;;5049992;28;20450;-85
2022/10/06 02:28:54;;;;;;;15.73;10.07;;;17.80;59.90;;;;;;5072637;28;20029;-87
2022/10/06 02:31:19;;;;;;;17.15;10.38;;;17.60;60.70;;;;;;5073240;28;20052;-88
2022/10/06 02:33:45;;;;;;;15.48;9.93;;;17.70;59.20;;;;;;5073976;28;20008;-86
2022/10/06 02:36:12;;;;;;;15.73;10.23;;;17.80;58.90;;;;;;5074705;28;20025;-90
2022/10/06 02:38:38;;;;;;;16.95;10.23;;;17.90;58.50;;;;;;5059248;28;20446;-87
2022/10/06 02:41:05;;;;;;;14.38;10.30;;;18.00;58.50;;;;;;5048897;28;20031;-86
2022/10/06 02:43:31;;;;;;;14.65;9.70;;;18.00;58.10;;;;;;5059251;28;20032;-85
2022/10/06 02:46:00;;;;;;;16.42;9.95;;;18.00;57.70;;;;;;5077235;28;20025;-85
2022/10/06 02:48:27;;;;;;;17.85;10.55;;;17.70;57.90;;;;;;5076388;28;20060;-86
2022/10/06 02:50:57;;;;;;;19.15;11.40;;;17.60;58.00;;;;;;5059265;28;20020;-92
2022/10/06 02:53:25;;;;;;;15.95;10.57;;;17.30;58.40;;;;;;5059920;28;20024;-86
2022/10/06 02:56:06;;;;;;;16.10;10.07;;;17.20;58.70;;;;;;5058708;28;20055;-86
2022/10/06 02:58:32;;;;;;;;;;;17.20;58.50;;;;;;5054024;28;20028;-92
2022/10/06 03:01:25;;;;;;;13.43;8.77;;;17.20;58.50;;;;;;5058932;28;19915;-86
2022/10/06 03:03:51;;;;;;;14.30;9.57;;;17.30;58.60;;;;;;5054371;28;20083;-86
2022/10/06 03:06:22;;;;;;;14.82;9.65;;;17.20;58.70;;;;;;5055815;28;20119;-86
2022/10/06 03:08:56;;;;;;;15.85;9.85;;;16.90;60.60;;;;;;5075722;28;20032;-87
2022/10/06 03:11:24;;;;;;;16.02;9.93;;;16.80;61.00;;;;;;5059005;28;20028;-86
2022/10/06 03:13:50;;;;;;;16.10;9.98;;;17.00;60.00;;;;;;5058647;28;20059;-87
2022/10/06 03:16:22;;;;;;;14.60;10.00;;;17.10;58.90;;;;;;5058888;28;20465;-88
2022/10/06 03:18:50;;;;;;;14.80;9.77;;;17.20;58.40;;;;;;5076801;28;20029;-87
2022/10/06 03:21:20;;;;;;;13.48;9.32;;;17.10;58.30;;;;;;5077563;28;20037;-88
2022/10/06 03:23:46;;;;;;;;;;;17.10;58.30;;;;;;5059306;28;20024;-88
2022/10/06 03:26:14;;;;;;;16.42;9.88;;;17.20;58.30;;;;;;5058948;28;19910;-92
2022/10/06 03:28:40;;;;;;;19.25;10.52;;;17.30;58.30;;;;;;5058602;28;20028;-88
2022/10/06 03:31:06;;;;;;;14.98;10.07;;;17.30;58.30;;;;;;5076305;28;20051;-88
2022/10/06 03:33:33;;;;;;;14.10;9.50;;;17.30;58.20;;;;;;5058893;28;20086;-88
2022/10/06 03:36:06;;;;;;;14.10;10.20;;;17.40;58.10;;;;;;5059071;28;20115;-88
2022/10/06 03:38:33;;;;;;;13.43;9.50;;;17.30;58.40;;;;;;5058672;28;20021;-87
2022/10/06 03:41:17;;;;;;;16.52;10.45;;;17.10;60.50;;;;;;5057939;28;20126;-89
2022/10/06 03:43:44;;;;;;;14.93;9.15;;;17.10;60.90;;;;;;5038669;28;20075;-88
2022/10/06 03:46:12;;;;;;;16.25;10.73;;;16.90;61.20;;;;;;5070258;28;20104;-89
2022/10/06 03:48:38;;;;;;;14.48;9.18;;;16.90;62.00;;;;;;5075286;28;20490;-89
2022/10/06 03:51:26;;;;;;;14.00;8.52;;;17.10;60.30;;;;;;5058050;28;20119;-87
2022/10/06 03:53:52;;;;;;;14.52;9.18;;;17.30;58.80;;;;;;5070296;28;20031;-87
2022/10/06 03:56:23;;;;;;;14.75;8.90;;;17.30;58.20;;;;;;5058743;28;20484;-88
2022/10/06 03:58:50;;;;;;;;;;;17.20;58.10;;;;;;5091753;28;20120;-87
2022/10/06 04:01:22;;;;;;;14.35;8.90;;;17.10;58.00;;;;;;5052085;28;20011;-89
2022/10/06 04:03:48;;;;;;;14.75;9.50;;;17.00;58.00;;;;;;5056622;28;20024;-88
2022/10/06 04:06:17;;;;;;;14.82;8.80;;;17.10;58.30;;;;;;5044754;28;20036;-88
2022/10/06 04:08:44;;;;;;;13.48;8.45;;;17.20;58.20;;;;;;5057627;28;20029;-89
2022/10/06 04:11:25;;;;;;;13.05;8.52;;;17.30;57.70;;;;;;5071559;28;20071;-89
2022/10/06 04:13:59;;;;;;;16.08;9.25;;;17.20;57.50;;;;;;5055586;28;20025;-90
2022/10/06 04:16:30;;;;;;;14.07;8.70;;;17.10;57.60;;;;;;5064502;28;20399;-88
2022/10/06 04:18:58;;;;;;;15.25;9.50;;;17.10;57.70;;;;;;5038210;28;20109;-88
2022/10/06 04:21:25;;;;;;;13.85;8.60;;;17.10;57.80;;;;;;5071592;28;20041;-89
2022/10/06 04:23:58;;;;;;;14.52;9.30;;;17.10;57.80;;;;;;5055514;28;20096;-88
2022/10/06 04:26:26;;;;;;;14.13;9.38;;;17.00;57.40;;;;;;5050004;28;20025;-87
2022/10/06 04:28:53;;;;;;;15.98;9.60;;;16.80;57.60;;;;;;5069774;28;20024;-91
2022/10/06 04:31:24;;;;;;;15.45;9.55;;;16.60;57.80;;;;;;5058318;28;20490;-87
2022/10/06 04:33:51;;;;;;;14.32;9.20;;;16.50;58.40;;;;;;5057184;28;20048;-88
2022/10/06 04:36:22;;;;;;;15.95;9.07;;;16.60;58.50;;;;;;5055997;28;20468;-87
2022/10/06 04:38:57;;;;;;;15.98;9.45;;;16.60;58.20;;;;;;5057771;28;20029;-88
2022/10/06 04:42:07;;;;;;;15.98;9.25;;;16.50;58.60;;;;;;5042865;28;20106;-85
2022/10/06 04:44:32;;;;;;;15.23;9.05;;;16.40;58.80;;;;;;5071154;28;20070;-86
2022/10/06 04:47:00;;;;;;;15.30;8.82;;;16.50;58.80;;;;;;5056099;28;20028;-87
2022/10/06 04:49:25;;;;;;;13.73;8.65;;;16.60;58.50;;;;;;5056985;28;20107;-87
2022/10/06 04:51:51;;;;;;;14.57;9.00;;;16.70;58.30;;;;;;5056653;28;20448;-86
2022/10/06 04:54:17;;;;;;;14.02;9.07;;;16.70;58.20;;;;;;5073634;28;20494;-87
2022/10/06 04:56:46;;;;;;;16.33;9.32;;;16.80;57.90;;;;;;5074919;28;20024;-86
2022/10/06 04:59:12;;;;;;;12.98;8.77;;;16.60;57.70;;;;;;5056547;28;20039;-86
2022/10/06 05:01:37;;;;;;;20.13;11.25;;;16.50;57.70;;;;;;5074251;28;20041;-85
2022/10/06 05:04:04;;;;;;;13.98;8.98;;;16.60;58.00;;;;;;5074377;28;20091;-86
2022/10/06 05:06:33;;;;;;;16.58;9.38;;;16.60;59.20;;;;;;5056310;28;20031;-86
2022/10/06 05:09:01;;;;;;;12.35;8.52;;;16.60;59.20;;;;;;5072602;28;20024;-85
2022/10/06 05:11:27;;;;;;;13.80;8.77;;;16.70;58.40;;;;;;5073429;28;20016;-85
2022/10/06 05:13:55;;;;;;;16.30;9.18;;;16.70;57.90;;;;;;5088611;28;20077;-85
2022/10/06 05:16:23;;;;;;;16.55;9.50;;;16.70;57.90;;;;;;5084031;28;20032;-86
2022/10/06 05:18:49;;;;;;;20.48;11.48;;;16.80;58.20;;;;;;5073609;28;20129;-85
2022/10/06 05:21:19;;;;;;;14.43;9.43;;;16.70;58.50;;;;;;5072359;28;20047;-87
2022/10/06 05:23:45;;;;;;;20.80;11.27;;;16.50;58.40;;;;;;5073834;28;20024;-85
2022/10/06 05:26:20;;;;;;;22.25;12.65;;;16.50;58.70;;;;;;5089134;28;20031;-85
2022/10/06 05:28:49;;;;;;;15.43;10.10;;;16.60;58.90;;;;;;5055976;28;20028;-87
2022/10/06 05:31:23;;;;;;;17.77;11.38;;;16.60;58.80;;;;;;5072667;28;20206;-86
2022/10/06 05:33:49;;;;;;;18.27;10.07;;;16.60;59.40;;;;;;5055567;28;20072;-85
2022/10/06 05:36:20;;;;;;;18.08;10.00;;;16.60;59.50;;;;;;5072520;28;20016;-87
2022/10/06 05:38:47;;;;;;;17.52;10.18;;;16.50;59.30;;;;;;5072395;28;20475;-86
2022/10/06 05:41:21;;;;;;;17.73;11.02;;;16.70;59.10;;;;;;5065778;28;20040;-87
2022/10/06 05:43:51;;;;;;;19.30;10.98;;;16.80;59.50;;;;;;5036785;28;20036;-86
2022/10/06 05:46:23;;;;;;;;;;;16.90;60.00;;;;;;5047571;28;20020;-86
2022/10/06 05:48:51;;;;;;;19.55;11.00;;;17.00;59.80;;;;;;5072907;28;19962;-85
2022/10/06 05:51:18;;;;;;;18.40;11.63;;;17.20;59.70;;;;;;5055596;28;20029;-86
2022/10/06 05:53:44;;;;;;;20.77;11.23;;;17.40;59.80;;;;;;5055695;28;20024;-86
2022/10/06 05:56:15;;;;;;;22.17;11.70;;;17.50;59.60;;;;;;5072123;28;20024;-86
2022/10/06 05:58:43;;;;;;;21.48;12.70;;;17.70;59.60;;;;;;5068914;28;20059;-86
2022/10/06 06:01:12;;;;;;;20.63;11.88;;;17.80;59.50;;;;;;5072370;28;20024;-85
2022/10/06 06:03:39;;;;;;;18.35;13.27;;;17.90;59.50;;;;;;5072143;28;20029;-86
2022/10/06 06:06:20;;;;;;;22.52;13.55;;;18.10;59.50;;;;;;5055509;28;20071;-83
2022/10/06 06:08:50;;;;;;;20.95;14.38;;;18.10;59.50;;;;;;5073203;28;20075;-83
2022/10/06 06:11:16;;;;;;;19.80;12.57;;;18.20;59.80;;;;;;5073911;28;20025;-85
2022/10/06 06:13:42;;;;;;;19.63;13.32;;;18.30;60.00;;;;;;5076044;28;20024;-83
2022/10/06 06:16:13;;;;;;;19.35;11.70;;;18.30;59.80;;;;;;5076113;28;20475;-86
2022/10/06 06:18:39;;;;;;;20.33;12.38;;;18.40;59.90;;;;;;5059711;28;20074;-85
2022/10/06 06:21:07;;;;;;;18.25;11.27;;;18.50;59.70;;;;;;5093221;28;20111;-85
2022/10/06 06:23:38;;;;;;;16.63;10.88;;;18.40;59.80;;;;;;5077693;28;20054;-86
2022/10/06 06:26:07;;;;;;;18.85;12.02;;;18.00;60.70;;;;;;5093742;28;20020;-85
2022/10/06 06:28:36;;;;;;;18.42;12.15;;;17.30;62.60;;;;;;5060183;28;20067;-84
2022/10/06 06:31:11;;;;;;;19.65;12.32;;;17.50;62.10;;;;;;5093084;28;20114;-86
2022/10/06 06:33:39;;;;;;;20.20;12.90;;;17.80;61.60;;;;;;5060593;28;20064;-86
2022/10/06 06:36:26;;;;;;;18.40;12.07;;;18.10;61.00;;;;;;5057336;28;20021;-88
2022/10/06 06:38:54;;;;;;;22.35;12.25;;;18.40;60.50;;;;;;5057303;28;20029;-89
2022/10/06 06:41:26;;;;;;;17.52;11.52;;;18.60;60.40;;;;;;5039204;28;20032;-86
2022/10/06 06:43:52;;;;;;;19.85;11.00;;;18.80;60.00;;;;;;5056887;28;20036;-84
2022/10/06 06:46:19;;;;;;;19.35;11.38;;;18.90;60.10;;;;;;5072781;28;20028;-83
2022/10/06 06:48:46;;;;;;;15.45;10.45;;;19.00;60.10;;;;;;5051099;28;20497;-85
2022/10/06 06:51:12;;;;;;;17.27;11.05;;;18.90;60.40;;;;;;5059228;28;20028;-86
2022/10/06 06:53:39;;;;;;;15.38;11.23;;;19.00;60.60;;;;;;5076838;28;20086;-86
2022/10/06 06:56:07;;;;;;;18.48;11.43;;;19.00;60.60;;;;;;5075193;28;20035;-85
2022/10/06 06:58:34;;;;;;;19.92;11.27;;;19.10;60.40;;;;;;5058949;28;20052;-86
2022/10/06 07:01:13;;;;;;;18.13;11.73;;;19.30;60.10;;;;;;5075166;28;20029;-86
2022/10/06 07:03:41;;;;;;;16.13;10.90;;;19.50;59.80;;;;;;5073625;28;20043;-85
2022/10/06 07:06:15;;;;;;;18.83;12.32;;;19.50;59.60;;;;;;5073589;28;20020;-85
2022/10/06 07:08:43;;;;;;;17.88;12.07;;;19.60;59.80;;;;;;5075205;28;20025;-84
2022/10/06 07:11:14;;;;;;;23.30;13.38;;;19.60;59.80;;;;;;5076526;28;20487;-85
2022/10/06 07:13:41;;;;;;;26.30;16.80;;;19.70;59.70;;;;;;5092149;28;20036;-86
2022/10/06 07:27:22;;;;;;;23.13;15.10;;;20.10;59.70;;;;;;5060176;28;20050;-89
2022/10/06 07:29:52;;;;;;;21.27;13.40;;;20.30;59.80;;;;;;5075349;28;20028;-86
2022/10/06 07:32:20;;;;;;;18.65;12.52;;;20.40;59.40;;;;;;5074960;28;20045;-86
2022/10/06 07:34:46;;;;;;;18.95;11.38;;;20.50;59.70;;;;;;5074570;28;20025;-87
2022/10/06 07:37:12;;;;;;;16.55;11.55;;;20.30;59.70;;;;;;5058242;28;20115;-86
2022/10/06 07:39:37;;;;;;;17.20;11.85;;;19.70;60.90;;;;;;5070733;28;20109;-86
2022/10/06 07:42:09;;;;;;;18.20;11.93;;;19.70;62.10;;;;;;5076968;28;20407;-86
2022/10/06 07:44:34;;;;;;;17.48;12.20;;;20.10;61.40;;;;;;5058182;28;20025;-87
2022/10/06 07:47:01;;;;;;;16.83;11.73;;;20.50;60.80;;;;;;5074638;28;20032;-86
2022/10/06 07:49:27;;;;;;;17.23;11.98;;;20.60;59.70;;;;;;5057741;28;20024;-86
2022/10/06 07:51:52;;;;;;;16.88;11.65;;;20.20;61.30;;;;;;5065167;28;20028;-84
2022/10/06 07:54:19;;;;;;;18.90;11.40;;;20.30;60.60;;;;;;5074913;28;20116;-86
2022/10/06 07:56:45;;;;;;;17.92;11.63;;;20.90;60.00;;;;;;5053800;28;20025;-84
2022/10/06 07:59:10;;;;;;;17.02;11.15;;;21.40;59.10;;;;;;5075505;28;20025;-85
2022/10/06 08:01:38;;;;;;;16.13;11.80;;;21.80;58.50;;;;;;5057121;28;20029;-85
2022/10/06 08:04:05;;;;;;;17.70;11.05;;;22.00;58.50;;;;;;5074490;28;20550;-84
2022/10/06 08:06:32;;;;;;;16.73;11.95;;;22.20;57.80;;;;;;5057562;28;20024;-84
2022/10/06 08:08:58;;;;;;;17.95;11.07;;;22.20;57.90;;;;;;5065055;28;20086;-86
2022/10/06 08:11:23;;;;;;;17.65;10.63;;;22.40;57.10;;;;;;5036995;28;20028;-83
2022/10/06 08:13:50;;;;;;;17.08;11.35;;;21.90;57.40;;;;;;5055424;28;20029;-84
2022/10/06 08:16:21;;;;;;;15.70;11.40;;;21.30;59.30;;;;;;5039617;28;20025;-85
2022/10/06 08:18:54;;;;;;;19.30;11.20;;;21.40;59.70;;;;;;5075464;28;20039;-83
2022/10/06 08:21:23;;;;;;;15.95;10.70;;;21.90;58.80;;;;;;5075342;28;20021;-85
2022/10/06 08:23:50;;;;;;;17.10;11.35;;;22.00;59.20;;;;;;5075177;28;20025;-84
2022/10/06 08:26:18;;;;;;;17.95;11.38;;;22.40;58.70;;;;;;5052595;28;20063;-84
2022/10/06 08:28:49;;;;;;;15.90;10.88;;;23.10;58.50;;;;;;5052493;28;20033;-89
2022/10/06 08:31:17;;;;;;;15.90;11.00;;;23.60;57.20;;;;;;5057063;28;20048;-87
2022/10/06 08:33:44;;;;;;;14.27;10.65;;;23.40;56.10;;;;;;5072526;28;20032;-86
2022/10/06 08:36:18;;;;;;;17.90;11.65;;;23.60;57.40;;;;;;5074045;28;20024;-88
2022/10/06 08:38:48;;;;;;;18.00;12.18;;;23.60;56.00;;;;;;5055273;28;20396;-87
2022/10/06 08:41:35;;;;;;;15.07;11.70;;;23.90;56.60;;;;;;5074242;28;20074;-85
2022/10/06 08:44:17;;;;;;;17.20;11.50;;;24.10;55.70;;;;;;5056853;28;20032;-84
2022/10/06 08:47:21;;;;;;;13.43;9.70;;;24.60;55.70;;;;;;5075039;28;20479;-80
2022/10/06 08:49:49;;;;;;;14.45;10.07;;;24.80;55.60;;;;;;5039447;28;20040;-80
2022/10/06 08:52:50;;;;;;;13.75;9.23;;;24.90;54.50;;;;;;5054931;28;20457;-86
2022/10/06 08:55:29;;;;;;;13.32;9.30;;;25.20;54.40;;;;;;5045830;28;20021;-85
2022/10/06 08:58:08;;;;;;;12.38;8.77;;;24.90;54.20;;;;;;5073177;28;20032;-81
2022/10/06 09:00:34;;;;;;;12.18;9.13;;;24.50;54.40;;;;;;5074316;28;20024;-81
2022/10/06 09:03:01;;;;;;;15.05;9.13;;;24.30;55.00;;;;;;5074306;28;20035;-85
2022/10/06 09:05:29;;;;;;;12.35;8.95;;;24.20;54.80;;;;;;5063508;28;20523;-81
2022/10/06 09:08:35;;;;;;;12.43;8.93;;;23.70;56.10;;;;;;5054286;28;20529;-84
2022/10/06 09:11:28;;;;;;;14.25;9.00;;;23.90;56.60;;;;;;5069670;28;20025;-84
2022/10/06 09:14:08;;;;;;;12.65;8.80;;;23.80;55.80;;;;;;5064357;28;20025;-88
2022/10/06 09:16:37;;;;;;;12.52;8.77;;;23.20;56.70;;;;;;5073308;28;20036;-95
2022/10/06 09:19:26;;;;;;;13.90;8.40;;;22.80;57.40;;;;;;5055708;28;20394;-83
2022/10/06 09:21:53;;;;;;;13.52;8.32;;;22.80;58.80;;;;;;5049669;28;20037;-82
2022/10/06 09:24:40;;;;;;;13.50;8.48;;;23.50;58.70;;;;;;5053334;28;20060;-86
2022/10/06 09:27:29;;;;;;;13.45;8.25;;;24.00;57.00;;;;;;5052650;28;20463;-82
2022/10/06 09:29:54;;;;;;;13.02;8.32;;;24.10;56.10;;;;;;5052814;28;20123;-81
2022/10/06 09:32:23;;;;;;;10.70;7.63;;;24.20;57.00;;;;;;5078315;28;20024;-85
2022/10/06 09:34:58;;;;;;;10.68;7.43;;;24.60;55.50;;;;;;5093023;28;20024;-88
2022/10/06 09:37:25;;;;;;;13.30;8.23;;;25.10;54.60;;;;;;5099085;28;20072;-84
2022/10/06 09:39:52;;;;;;;13.43;7.88;;;24.70;55.20;;;;;;5098931;28;20020;-83
2022/10/06 09:42:34;;;;;;;11.07;8.48;;;24.50;56.00;;;;;;5058517;28;20040;-83
2022/10/06 09:45:06;;;;;;;18.30;8.52;;;24.10;56.30;;;;;;5055403;28;20066;-81
2022/10/06 09:47:39;;;;;;;14.82;8.63;;;24.10;56.70;;;;;;5077144;28;20522;-83
2022/10/06 09:50:11;;;;;;;11.57;7.43;;;24.40;56.60;;;;;;5075229;28;20097;-83
2022/10/06 09:52:39;;;;;;;15.32;8.05;;;24.40;56.50;;;;;;5091660;28;20028;-81
2022/10/06 09:55:13;;;;;;;12.77;7.63;;;24.60;56.40;;;;;;5093476;28;20016;-88
2022/10/06 09:57:48;;;;;;;10.82;8.02;;;24.90;56.50;;;;;;5091546;28;20073;-86
2022/10/06 10:00:34;;;;;;;15.80;8.60;;;25.00;54.70;;;;;;5075293;28;20051;-84
2022/10/06 10:03:10;;;;;;;14.90;8.57;;;24.80;54.90;;;;;;5090952;28;20550;-88
2022/10/06 10:05:44;;;;;;;12.40;8.13;;;24.20;56.20;;;;;;5093550;28;20467;-82
2022/10/06 10:08:13;;;;;;;12.00;8.50;;;24.40;57.20;;;;;;5074906;28;20505;-86
2022/10/06 10:10:39;;;;;;;26.17;16.95;;;24.90;56.10;;;;;;5093566;28;20032;-83
2022/10/06 10:13:23;;;;;;;11.95;8.25;;;24.90;55.70;;;;;;5092976;28;20024;-89
2022/10/06 10:16:00;;;;;;;11.30;7.28;;;25.30;55.70;;;;;;5093315;28;20025;-82
2022/10/06 10:18:29;;;;;;;12.93;7.60;;;25.70;54.60;;;;;;5092427;28;20039;-87
2022/10/06 10:21:03;;;;;;;12.05;7.43;;;25.80;54.70;;;;;;5093166;28;20074;-83
2022/10/06 10:23:32;;;;;;;9.23;6.10;;;26.20;54.10;;;;;;5092717;28;20032;-81
2022/10/06 10:26:13;;;;;;;9.25;5.05;;;26.50;54.00;;;;;;5092355;28;20051;-80
2022/10/06 10:29:03;;;;;;;8.43;4.60;;;26.70;52.30;;;;;;5072779;28;20028;-80
2022/10/06 10:31:30;;;;;;;;;;;26.50;52.20;;;;;;5073393;28;20075;-82
2022/10/06 10:34:21;;;;;;;6.15;4.30;;;26.70;52.50;;;;;;5090451;28;19904;-83
2022/10/06 10:37:29;;;;;;;8.82;4.60;;;26.90;52.80;;;;;;5009830;28;20034;-85
2022/10/06 10:40:04;;;;;;;6.68;4.30;;;27.00;52.80;;;;;;4932992;29;20048;-84
2022/10/06 10:42:50;;;;;;;8.13;4.93;;;27.20;51.90;;;;;;4917493;29;20250;-83
2022/10/06 10:45:34;;;;;;;6.97;4.38;;;27.30;51.00;;;;;;4933679;29;20600;-85
2022/10/06 10:48:05;;;;;;;25.52;5.53;;;27.20;52.20;;;;;;4933549;29;20044;-82
2022/10/06 10:50:54;;;;;;;9.32;4.45;;;27.30;52.30;;;;;;4933486;28;20075;-80
2022/10/06 10:53:52;;;;;;;7.30;4.30;;;27.40;52.20;;;;;;4933531;29;20023;-84
2022/10/06 10:56:22;;;;;;;7.25;4.38;;;27.40;53.10;;;;;;4933200;29;20087;-81
2022/10/06 10:58:53;;;;;;;7.20;4.37;;;27.20;52.40;;;;;;4937240;29;20032;-81
2022/10/06 11:01:42;;;;;;;7.10;4.18;;;27.20;52.90;;;;;;4937308;29;20040;-84
2022/10/06 11:04:12;;;;;;;6.60;4.33;;;27.30;52.60;;;;;;4934416;29;20110;-92
2022/10/06 11:07:22;;;;;;;8.00;4.10;;;27.40;51.80;;;;;;4936829;29;20044;-82
2022/10/06 11:10:12;;;;;;;8.55;4.20;;;27.10;52.00;;;;;;4880363;29;20535;-87
2022/10/06 11:13:19;;;;;;;9.45;4.47;;;27.00;51.90;;;;;;4880897;29;20021;-85
2022/10/06 11:16:03;;;;;;;8.93;4.50;;;27.30;53.60;;;;;;4907887;28;20044;-85
2022/10/06 11:18:47;;;;;;;7.80;3.80;;;27.70;53.00;;;;;;4995252;28;20409;-86
2022/10/06 11:21:49;;;;;;;6.07;4.00;;;27.80;51.80;;;;;;4978607;28;20561;-82
2022/10/06 11:24:34;;;;;;;6.45;4.47;;;27.80;52.40;;;;;;4921048;29;20087;-90
2022/10/06 11:27:17;;;;;;;5.55;3.90;;;27.80;51.90;;;;;;4937371;29;20039;-85
2022/10/06 11:30:03;;;;;;;6.00;3.83;;;27.80;51.80;;;;;;4937094;29;20039;-84
2022/10/06 11:33:01;;;;;;;6.78;4.07;;;27.90;52.30;;;;;;4936905;29;20410;-87
2022/10/06 11:35:34;;;;;;;5.35;4.00;;;28.10;52.50;;;;;;4937019;29;20024;-83
2022/10/06 11:38:11;;;;;;;7.18;4.53;;;28.10;51.60;;;;;;4936698;29;20312;-86
2022/10/06 11:40:50;;;;;;;6.50;3.97;;;27.90;51.60;;;;;;4937411;29;20035;-87
2022/10/06 11:43:26;;;;;;;6.43;3.90;;;27.60;51.60;;;;;;4937617;29;20035;-91
2022/10/06 11:46:00;;;;;;;6.60;4.30;;;27.50;52.50;;;;;;4951031;28;20038;-86
2022/10/06 11:48:31;;;;;;;6.28;4.43;;;27.50;52.80;;;;;;4994680;28;20118;-83
2022/10/06 11:51:16;;;;;;;5.50;4.20;;;27.40;52.40;;;;;;4994022;28;20069;-86
2022/10/06 11:53:42;;;;;;;6.15;4.25;;;27.10;53.30;;;;;;4994498;28;20029;-85
2022/10/06 11:56:16;;;;;;;7.32;3.97;;;27.00;53.70;;;;;;4993978;28;20025;-86
2022/10/06 11:58:54;;;;;;;7.50;4.50;;;27.10;54.00;;;;;;5065175;28;20402;-86
2022/10/06 12:01:29;;;;;;;7.63;4.40;;;27.20;53.80;;;;;;5077067;28;20020;-82
2022/10/06 12:04:07;;;;;;;7.88;4.30;;;27.30;53.40;;;;;;5095765;28;20032;-84
2022/10/06 12:09:23;;;;;;;6.82;4.63;;;27.00;53.40;;;;;;5094663;28;20032;-86
2022/10/06 12:11:50;;;;;;;5.63;3.92;;;26.90;53.60;;;;;;5095590;28;20024;-88
2022/10/06 12:14:31;;;;;;;7.43;4.18;;;26.90;54.40;;;;;;5077670;28;20394;-92
2022/10/06 12:17:41;;;;;;;6.30;4.70;;;26.80;53.90;;;;;;5077343;28;20120;-84
2022/10/06 12:20:35;;;;;;;6.63;4.35;;;26.90;53.50;;;;;;5064851;28;20032;-89
2022/10/06 12:23:36;;;;;;;7.05;4.50;;;26.90;54.10;;;;;;5094478;28;20418;-84
2022/10/06 12:26:34;;;;;;;6.75;4.53;;;27.00;54.10;;;;;;5094540;28;20378;-85
2022/10/06 12:29:22;;;;;;;6.45;4.47;;;27.10;53.70;;;;;;5094280;28;20105;-88
2022/10/06 12:32:18;;;;;;;9.95;4.97;;;27.40;53.60;;;;;;5095013;28;20048;-84
2022/10/06 12:34:55;;;;;;;6.50;4.30;;;27.60;53.70;;;;;;5094373;28;20021;-82
2022/10/06 12:37:30;;;;;;;10.07;4.93;;;27.50;52.80;;;;;;5095080;28;20020;-85
2022/10/06 12:40:33;;;;;;;7.38;4.63;;;27.40;54.10;;;;;;5095108;28;20024;-88
2022/10/06 12:43:12;;;;;;;7.38;4.35;;;27.60;53.90;;;;;;5095992;28;20521;-93
2022/10/06 12:45:47;;;;;;;8.50;4.50;;;27.40;53.30;;;;;;5094648;28;20040;-87
2022/10/06 12:48:40;;;;;;;6.65;3.97;;;27.40;54.20;;;;;;5094907;28;20034;-94
2022/10/06 12:51:21;;;;;;;8.00;4.93;;;27.40;53.50;;;;;;5094942;28;20026;-83
2022/10/06 12:54:18;;;;;;;7.80;4.15;;;27.50;53.70;;;;;;5094693;28;20024;-84
2022/10/06 12:56:57;;;;;;;9.60;4.45;;;27.40;53.70;;;;;;5094494;28;20065;-87
2022/10/06 12:59:27;;;;;;;6.15;4.53;;;27.50;53.40;;;;;;5094553;28;20052;-85
2022/10/06 13:02:17;;;;;;;6.20;4.43;;;27.40;53.60;;;;;;5076546;28;20040;-84
2022/10/06 13:05:10;;;;;;;9.52;4.47;;;27.40;53.40;;;;;;5076955;28;20114;-85
2022/10/06 13:08:20;;;;;;;6.82;4.40;;;27.40;53.80;;;;;;5082397;28;20036;-84
2022/10/06 13:10:46;;;;;;;5.50;4.28;;;27.30;53.60;;;;;;5074987;28;20016;-90
2022/10/06 13:13:29;;;;;;;7.68;4.20;;;27.20;53.40;;;;;;5076548;28;20431;-82
2022/10/06 13:15:59;;;;;;;8.32;4.10;;;27.40;53.70;;;;;;5094217;28;20486;-83
2022/10/06 13:18:26;;;;;;;7.57;4.03;;;27.20;53.00;;;;;;5093649;28;20039;-90